Time;durP1;ratioP1;P1;durP2;ratioP2;P2;SDS_P1;SDS_P2;PMS_P1;PMS_P2;Temp;Humidity;BMP_temperature;BMP_pressure;BME280_temperature;BME280_humidity;BME280_pressure;Samples;Min_cycle;Max_cycle;Signal;HPM_P1;HPM_P2
2022/02/12 00:00:41;;;;;;;7.72;2.47;;;;;;;;;;5063520;28;20032;-47
2022/02/12 00:03:08;;;;;;;3.03;1.33;;;;;;;;;;5073651;28;20032;-47
2022/02/12 00:05:34;;;;;;;3.20;1.80;;;;;;;;;;5073929;28;20063;-46
2022/02/12 00:08:00;;;;;;;3.80;1.75;;;;;;;;;;5073977;28;20432;-47
2022/02/12 00:10:27;;;;;;;3.78;1.80;;;;;;;;;;5064592;28;20021;-47
2022/02/12 00:12:53;;;;;;;6.53;2.05;;;;;;;;;;5065598;28;20365;-47
2022/02/12 00:15:20;;;;;;;6.70;1.75;;;;;;;;;;5073547;28;20075;-48
2022/02/12 00:17:46;;;;;;;6.28;2.00;;;;;;;;;;5070455;28;20032;-47
2022/02/12 00:20:12;;;;;;;5.68;2.08;;;;;;;;;;5061436;28;20369;-47
2022/02/12 00:22:39;;;;;;;3.20;1.45;;;;;;;;;;5068208;28;20052;-47
2022/02/12 00:25:05;;;;;;;4.60;1.58;;;;;;;;;;5074028;28;20024;-46
2022/02/12 00:27:31;;;;;;;3.92;1.70;;;;;;;;;;5069340;28;20569;-46
2022/02/12 00:29:57;;;;;;;3.25;1.50;;;;;;;;;;5063091;28;20111;-49
2022/02/12 00:32:23;;;;;;;3.15;1.55;;;;;;;;;;5070192;28;20021;-48
2022/02/12 00:34:49;;;;;;;6.07;2.15;;;;;;;;;;5069108;28;20051;-47
2022/02/12 00:37:15;;;;;;;7.32;1.77;;;;;;;;;;5073025;28;20107;-47
2022/02/12 00:39:41;;;;;;;7.45;1.67;;;;;;;;;;5073878;28;20714;-50
2022/02/12 00:42:08;;;;;;;4.90;1.77;;;;;;;;;;5071918;28;20052;-50
2022/02/12 00:44:34;;;;;;;4.70;2.15;;;;;;;;;;5064561;28;20115;-47
2022/02/12 00:47:00;;;;;;;5.88;1.60;;;;;;;;;;5067956;28;20025;-47
2022/02/12 00:49:26;;;;;;;3.38;1.85;;;;;;;;;;5066335;28;20415;-47
2022/02/12 00:51:53;;;;;;;5.95;1.83;;;;;;;;;;5071731;28;20384;-46
2022/02/12 00:54:19;;;;;;;4.07;1.63;;;;;;;;;;5073532;28;20496;-46
2022/02/12 00:56:45;;;;;;;3.88;1.90;;;;;;;;;;5073009;28;20116;-47
2022/02/12 00:59:11;;;;;;;2.20;1.30;;;;;;;;;;5073620;28;20029;-47
2022/02/12 01:01:37;;;;;;;5.15;2.47;;;;;;;;;;5071186;28;20031;-46
2022/02/12 01:04:04;;;;;;;5.07;1.65;;;;;;;;;;5068196;28;20043;-47
2022/02/12 01:06:31;;;;;;;8.23;2.03;;;;;;;;;;5072545;28;20040;-46
2022/02/12 01:08:57;;;;;;;3.08;1.67;;;;;;;;;;5071510;28;20028;-47
2022/02/12 01:11:23;;;;;;;3.75;1.65;;;;;;;;;;5069640;28;20024;-48
2022/02/12 01:13:49;;;;;;;6.38;2.00;;;;;;;;;;5065427;28;20738;-47
2022/02/12 01:16:15;;;;;;;4.57;1.70;;;;;;;;;;5067581;28;20035;-47
2022/02/12 01:18:41;;;;;;;6.65;1.75;;;;;;;;;;5071505;28;20032;-49
2022/02/12 01:21:07;;;;;;;3.08;1.95;;;;;;;;;;5067992;28;20071;-47
2022/02/12 01:23:33;;;;;;;3.17;2.05;;;;;;;;;;5072348;28;20115;-47
2022/02/12 01:25:59;;;;;;;3.92;2.28;;;;;;;;;;5071009;28;20048;-51
2022/02/12 01:28:25;;;;;;;7.85;2.60;;;;;;;;;;5069211;28;20044;-49
2022/02/12 01:30:51;;;;;;;5.70;1.98;;;;;;;;;;5071460;28;20028;-47
2022/02/12 01:33:17;;;;;;;8.20;2.13;;;;;;;;;;5072033;28;20435;-47
2022/02/12 01:35:43;;;;;;;4.30;2.10;;;;;;;;;;5067880;28;20041;-49
2022/02/12 01:38:09;;;;;;;5.68;1.80;;;;;;;;;;5069871;28;20089;-47
2022/02/12 01:40:36;;;;;;;6.15;1.90;;;;;;;;;;5070661;28;20026;-47
2022/02/12 01:43:02;;;;;;;4.10;2.20;;;;;;;;;;5070575;28;20020;-47
2022/02/12 01:45:32;;;;;;;3.40;1.83;;;;;;;;;;5068038;28;20033;-47
2022/02/12 01:47:58;;;;;;;3.38;1.92;;;;;;;;;;5071644;28;20030;-46
2022/02/12 01:50:24;;;;;;;7.50;2.00;;;;;;;;;;5071043;28;20119;-47
2022/02/12 01:52:50;;;;;;;6.85;2.75;;;;;;;;;;5061354;28;20127;-46
2022/02/12 01:55:17;;;;;;;4.30;1.95;;;;;;;;;;5068481;28;20475;-47
2022/02/12 01:57:43;;;;;;;4.03;2.17;;;;;;;;;;5069074;28;20529;-50
2022/02/12 02:00:11;;;;;;;5.13;1.67;;;;;;;;;;5070036;28;20025;-47
2022/02/12 02:02:40;;;;;;;3.88;1.83;;;;;;;;;;5063645;28;20029;-54
2022/02/12 02:05:08;;;;;;;4.85;1.63;;;;;;;;;;5069122;28;20476;-54
2022/02/12 02:07:34;;;;;;;7.38;2.47;;;;;;;;;;5060353;28;20036;-50
2022/02/12 02:10:01;;;;;;;4.75;2.03;;;;;;;;;;5064492;28;20387;-54
2022/02/12 02:12:27;;;;;;;4.15;1.90;;;;;;;;;;5065022;28;20036;-48
2022/02/12 02:14:53;;;;;;;3.15;2.20;;;;;;;;;;5069562;28;20173;-49
2022/02/12 02:17:19;;;;;;;3.15;2.20;;;;;;;;;;5066678;28;20032;-49
2022/02/12 02:19:45;;;;;;;5.30;2.42;;;;;;;;;;5072122;28;20032;-49
2022/02/12 02:22:11;;;;;;;5.60;2.45;;;;;;;;;;5068726;28;20457;-51
2022/02/12 02:24:37;;;;;;;8.10;2.05;;;;;;;;;;5071951;28;20044;-48
2022/02/12 02:27:07;;;;;;;4.53;2.13;;;;;;;;;;5069135;28;20027;-51
2022/02/12 02:29:33;;;;;;;7.63;2.17;;;;;;;;;;5061628;28;20028;-51
2022/02/12 02:31:59;;;;;;;4.32;2.08;;;;;;;;;;5067767;28;20024;-49
2022/02/12 02:34:26;;;;;;;7.28;2.05;;;;;;;;;;5071460;28;20582;-48
2022/02/12 02:36:52;;;;;;;5.82;2.08;;;;;;;;;;5073056;28;20503;-50
2022/02/12 02:39:19;;;;;;;10.75;2.80;;;;;;;;;;5067787;28;20024;-48
2022/02/12 02:41:44;;;;;;;6.97;2.40;;;;;;;;;;5070705;28;20039;-49
2022/02/12 02:44:10;;;;;;;8.48;2.47;;;;;;;;;;5072912;28;20115;-49
2022/02/12 02:46:36;;;;;;;6.95;3.40;;;;;;;;;;5075363;28;20024;-49
2022/02/12 02:49:02;;;;;;;5.63;2.67;;;;;;;;;;5065709;28;20032;-51
2022/02/12 02:56:57;;;;;;;4.32;2.35;;;;;;;;;;5073527;28;20094;-50
2022/02/12 02:59:23;;;;;;;9.88;3.10;;;;;;;;;;5069641;28;20027;-49
2022/02/12 03:01:52;;;;;;;4.65;2.05;;;;;;;;;;5074791;28;20032;-49
2022/02/12 03:04:19;;;;;;;6.53;1.92;;;;;;;;;;5073143;28;20021;-53
2022/02/12 03:06:45;;;;;;;4.95;2.15;;;;;;;;;;5068692;28;20058;-54
2022/02/12 03:09:11;;;;;;;5.80;2.28;;;;;;;;;;5073395;28;20029;-53
2022/02/12 03:11:37;;;;;;;5.40;2.30;;;;;;;;;;5074558;28;20036;-50
2022/02/12 03:14:03;;;;;;;4.53;2.10;;;;;;;;;;5075215;28;20035;-52
2022/02/12 03:16:29;;;;;;;6.25;2.55;;;;;;;;;;5072806;28;20025;-49
2022/02/12 03:18:55;;;;;;;4.93;2.33;;;;;;;;;;5068981;28;20048;-49
2022/02/12 03:21:21;;;;;;;5.88;2.60;;;;;;;;;;5066829;28;20025;-53
2022/02/12 03:23:47;;;;;;;5.07;1.90;;;;;;;;;;5073844;28;20033;-49
2022/02/12 03:26:14;;;;;;;7.93;3.03;;;;;;;;;;5074733;28;20059;-50
2022/02/12 03:28:40;;;;;;;11.15;2.63;;;;;;;;;;5072164;28;20020;-50
2022/02/12 03:31:07;;;;;;;4.85;2.45;;;;;;;;;;5073909;28;20396;-48
2022/02/12 03:33:33;;;;;;;5.65;2.33;;;;;;;;;;5064822;28;20075;-50
2022/02/12 03:35:59;;;;;;;6.53;2.35;;;;;;;;;;5064513;28;20441;-49
2022/02/12 03:38:26;;;;;;;4.43;2.53;;;;;;;;;;5070148;28;20039;-50
2022/02/12 03:41:02;;;;;;;5.18;2.55;;;;;;;;;;5068174;28;20078;-52
2022/02/12 03:43:29;;;;;;;8.50;2.88;;;;;;;;;;5070129;28;20884;-54
2022/02/12 03:45:57;;;;;;;5.57;2.60;;;;;;;;;;5074609;28;20031;-53
2022/02/12 03:48:23;;;;;;;4.72;2.40;;;;;;;;;;5061281;28;20038;-51
2022/02/12 03:50:49;;;;;;;4.38;2.65;;;;;;;;;;5067361;28;20388;-49
2022/02/12 03:53:14;;;;;;;8.93;2.58;;;;;;;;;;5069313;28;20041;-50
2022/02/12 03:55:41;;;;;;;6.43;2.70;;;;;;;;;;5070610;28;20082;-51
2022/02/12 03:58:14;;;;;;;8.95;2.58;;;;;;;;;;5069459;28;20508;-52
2022/02/12 04:00:41;;;;;;;6.10;2.72;;;;;;;;;;5066543;28;20020;-49
2022/02/12 04:03:07;;;;;;;5.45;2.50;;;;;;;;;;5068612;28;20028;-52
2022/02/12 04:05:33;;;;;;;4.93;2.03;;;;;;;;;;5066338;28;20040;-51
2022/02/12 04:07:59;;;;;;;6.55;2.40;;;;;;;;;;5068343;28;20037;-50
2022/02/12 04:10:26;;;;;;;14.20;3.40;;;;;;;;;;5074213;28;20040;-51
2022/02/12 04:12:52;;;;;;;9.00;2.95;;;;;;;;;;5072040;28;20025;-49
2022/02/12 04:15:19;;;;;;;7.20;3.20;;;;;;;;;;5073806;28;20068;-52
2022/02/12 04:17:45;;;;;;;10.70;3.55;;;;;;;;;;5073618;28;20035;-50
2022/02/12 04:20:12;;;;;;;13.95;3.90;;;;;;;;;;5076476;28;20024;-52
2022/02/12 04:22:39;;;;;;;8.75;3.85;;;;;;;;;;5069451;28;20031;-50
2022/02/12 04:25:06;;;;;;;7.50;3.03;;;;;;;;;;5063949;28;20033;-49
2022/02/12 04:27:32;;;;;;;5.13;2.60;;;;;;;;;;5073379;28;20376;-49
2022/02/12 04:29:58;;;;;;;6.75;3.30;;;;;;;;;;5067193;28;20108;-48
2022/02/12 04:32:25;;;;;;;8.07;3.13;;;;;;;;;;5071243;28;20028;-50
2022/02/12 04:34:52;;;;;;;8.43;3.00;;;;;;;;;;5065074;28;20052;-53
2022/02/12 04:37:18;;;;;;;9.77;3.40;;;;;;;;;;5068771;28;20140;-49
2022/02/12 04:39:44;;;;;;;4.25;2.42;;;;;;;;;;5069806;28;20055;-51
2022/02/12 04:42:16;;;;;;;8.15;2.90;;;;;;;;;;5073078;28;20056;-50
2022/02/12 04:44:43;;;;;;;6.80;2.63;;;;;;;;;;5069765;28;20368;-49
2022/02/12 04:47:09;;;;;;;3.50;2.28;;;;;;;;;;5073636;28;20024;-50
2022/02/12 04:49:35;;;;;;;4.93;2.15;;;;;;;;;;5072323;28;20064;-53
2022/02/12 04:52:01;;;;;;;8.07;3.25;;;;;;;;;;5072138;28;20357;-49
2022/02/12 04:54:27;;;;;;;6.93;2.53;;;;;;;;;;5060353;28;20519;-50
2022/02/12 04:56:53;;;;;;;7.25;2.95;;;;;;;;;;5066815;28;20123;-53
2022/02/12 04:59:19;;;;;;;8.05;2.58;;;;;;;;;;5070069;28;20111;-53
2022/02/12 05:01:45;;;;;;;5.53;2.30;;;;;;;;;;5072612;28;20115;-49
2022/02/12 05:04:11;;;;;;;8.32;2.90;;;;;;;;;;5070565;28;20839;-53
2022/02/12 05:06:37;;;;;;;10.30;2.83;;;;;;;;;;5073157;28;20028;-49
2022/02/12 05:09:04;;;;;;;7.00;2.75;;;;;;;;;;5071587;28;20043;-49
2022/02/12 05:11:30;;;;;;;7.88;2.78;;;;;;;;;;5067501;28;20025;-50
2022/02/12 05:13:56;;;;;;;8.93;2.72;;;;;;;;;;5072130;28;20024;-49
2022/02/12 05:16:22;;;;;;;11.80;2.60;;;;;;;;;;5062095;28;20116;-49
2022/02/12 05:18:48;;;;;;;5.72;2.55;;;;;;;;;;5070395;28;20033;-50
2022/02/12 05:21:14;;;;;;;6.70;2.45;;;;;;;;;;5061376;28;20366;-49
2022/02/12 05:23:40;;;;;;;4.07;2.92;;;;;;;;;;5072352;28;20063;-49
2022/02/12 05:26:06;;;;;;;4.68;2.20;;;;;;;;;;5071425;28;20032;-49
2022/02/12 05:28:32;;;;;;;9.75;3.90;;;;;;;;;;5070215;28;20020;-48
2022/02/12 05:30:58;;;;;;;16.98;4.50;;;;;;;;;;5071764;28;20024;-54
2022/02/12 05:33:25;;;;;;;13.13;5.28;;;;;;;;;;5071301;28;20488;-54
2022/02/12 05:35:51;;;;;;;10.50;4.60;;;;;;;;;;5068600;28;20032;-50
2022/02/12 05:38:17;;;;;;;10.35;3.33;;;;;;;;;;5071616;28;20036;-50
2022/02/12 05:40:43;;;;;;;8.20;3.50;;;;;;;;;;5070377;28;20397;-49
2022/02/12 05:43:09;;;;;;;10.77;3.85;;;;;;;;;;5069989;28;20109;-50
2022/02/12 05:45:36;;;;;;;11.40;2.97;;;;;;;;;;5057104;28;20544;-49
2022/02/12 05:48:02;;;;;;;8.75;2.90;;;;;;;;;;5062408;28;20037;-53
2022/02/12 05:50:29;;;;;;;7.15;2.97;;;;;;;;;;5058444;28;20056;-49
2022/02/12 05:52:55;;;;;;;6.53;3.13;;;;;;;;;;5071488;28;20048;-49
2022/02/12 05:55:21;;;;;;;8.73;3.47;;;;;;;;;;5062066;28;20047;-49
2022/02/12 05:57:47;;;;;;;9.70;3.55;;;;;;;;;;5066871;28;20115;-51
2022/02/12 06:00:13;;;;;;;7.22;2.95;;;;;;;;;;5072848;28;20469;-48
2022/02/12 06:02:39;;;;;;;10.38;3.88;;;;;;;;;;5067674;28;20141;-51
2022/02/12 06:05:05;;;;;;;10.88;3.13;;;;;;;;;;5060572;28;20170;-53
2022/02/12 06:07:31;;;;;;;13.15;3.83;;;;;;;;;;5067569;28;20031;-54
2022/02/12 06:09:57;;;;;;;10.93;3.15;;;;;;;;;;5071420;28;20032;-51
2022/02/12 06:12:23;;;;;;;9.57;2.88;;;;;;;;;;5068740;28;20112;-51
2022/02/12 06:14:49;;;;;;;7.78;2.88;;;;;;;;;;5067013;28;20024;-52
2022/02/12 06:17:15;;;;;;;7.45;2.92;;;;;;;;;;5068861;28;20059;-50
2022/02/12 06:19:41;;;;;;;8.82;2.95;;;;;;;;;;5063281;28;20028;-51
2022/02/12 06:22:07;;;;;;;11.77;2.72;;;;;;;;;;5069168;28;20140;-49
2022/02/12 06:24:33;;;;;;;5.60;2.72;;;;;;;;;;5062948;28;20032;-49
2022/02/12 06:27:04;;;;;;;7.65;2.60;;;;;;;;;;5071844;28;20129;-52
2022/02/12 06:29:30;;;;;;;9.43;2.30;;;;;;;;;;5065893;28;20702;-49
2022/02/12 06:31:56;;;;;;;9.07;2.25;;;;;;;;;;5070079;28;20033;-53
2022/02/12 06:34:22;;;;;;;5.57;2.03;;;;;;;;;;5062681;28;20385;-49
2022/02/12 06:36:48;;;;;;;8.23;3.20;;;;;;;;;;5069554;28;20029;-49
2022/02/12 06:39:14;;;;;;;5.40;2.72;;;;;;;;;;5064423;28;20430;-50
2022/02/12 06:41:40;;;;;;;9.63;2.75;;;;;;;;;;5066496;28;20021;-52
2022/02/12 06:44:06;;;;;;;9.68;3.58;;;;;;;;;;5057999;28;20476;-49
2022/02/12 06:46:32;;;;;;;15.70;3.38;;;;;;;;;;5071067;28;20029;-48
2022/02/12 06:48:58;;;;;;;4.55;2.50;;;;;;;;;;5071139;28;20028;-50
2022/02/12 06:51:24;;;;;;;4.13;2.28;;;;;;;;;;5069663;28;20021;-52
2022/02/12 06:53:50;;;;;;;10.50;2.65;;;;;;;;;;5071306;28;20041;-49
2022/02/12 06:56:16;;;;;;;5.25;2.47;;;;;;;;;;5071302;28;20029;-50
2022/02/12 06:58:42;;;;;;;8.57;2.38;;;;;;;;;;5061995;28;20036;-49
2022/02/12 07:01:08;;;;;;;7.78;2.60;;;;;;;;;;5064814;28;20099;-49
2022/02/12 07:03:34;;;;;;;7.38;2.80;;;;;;;;;;5066114;28;20377;-50
2022/02/12 07:06:00;;;;;;;8.40;2.42;;;;;;;;;;5063685;28;20032;-50
2022/02/12 07:08:26;;;;;;;5.88;2.28;;;;;;;;;;5053400;28;20025;-49
2022/02/12 07:10:52;;;;;;;6.25;2.65;;;;;;;;;;5070393;28;20028;-49
2022/02/12 07:13:18;;;;;;;9.10;2.85;;;;;;;;;;5070342;28;20451;-50
2022/02/12 07:15:44;;;;;;;11.50;3.50;;;;;;;;;;5062220;28;20029;-53
2022/02/12 07:18:12;;;;;;;9.95;3.38;;;;;;;;;;5069140;28;20099;-54
2022/02/12 07:20:38;;;;;;;10.48;3.63;;;;;;;;;;5065565;28;20426;-50
2022/02/12 07:23:04;;;;;;;10.57;3.13;;;;;;;;;;5065767;28;20096;-55
2022/02/12 07:25:30;;;;;;;4.70;2.78;;;;;;;;;;5066992;28;20020;-52
2022/02/12 07:27:56;;;;;;;10.25;3.75;;;;;;;;;;5067079;28;20048;-51
2022/02/12 07:30:22;;;;;;;11.77;4.78;;;;;;;;;;5070432;28;20037;-50
2022/02/12 07:32:49;;;;;;;10.32;4.20;;;;;;;;;;5058400;28;20033;-50
2022/02/12 07:35:15;;;;;;;10.45;3.90;;;;;;;;;;5068888;28;20112;-55
2022/02/12 07:37:43;;;;;;;9.85;3.88;;;;;;;;;;5071057;28;20171;-52
2022/02/12 07:40:09;;;;;;;8.55;4.00;;;;;;;;;;5073447;28;20368;-51
2022/02/12 07:42:35;;;;;;;8.85;3.60;;;;;;;;;;5071702;28;20035;-49
2022/02/12 07:45:01;;;;;;;11.48;4.05;;;;;;;;;;5057526;28;20569;-49
2022/02/12 07:47:27;;;;;;;9.05;3.70;;;;;;;;;;5075890;28;20119;-49
2022/02/12 07:49:53;;;;;;;10.27;4.28;;;;;;;;;;5068237;28;20032;-52
2022/02/12 07:52:19;;;;;;;7.82;3.70;;;;;;;;;;5071284;28;20029;-53
2022/02/12 07:54:45;;;;;;;5.93;3.10;;;;;;;;;;5073920;28;20044;-52
2022/02/12 07:57:11;;;;;;;6.82;3.20;;;;;;;;;;5073400;28;20063;-55
2022/02/12 07:59:37;;;;;;;9.35;3.55;;;;;;;;;;5073045;28;20029;-51
2022/02/12 08:02:03;;;;;;;15.10;4.88;;;;;;;;;;5064681;28;20029;-50
2022/02/12 08:04:29;;;;;;;16.08;7.78;;;;;;;;;;5071399;28;20028;-50
2022/02/12 08:09:40;;;;;;;14.80;6.70;;;;;;;;;;5058214;28;20035;-53
2022/02/12 08:12:18;;;;;;;16.63;6.38;;;;;;;;;;5073878;28;20032;-50
2022/02/12 08:14:46;;;;;;;11.95;6.45;;;;;;;;;;5065779;28;20080;-50
2022/02/12 08:17:12;;;;;;;10.20;4.35;;;;;;;;;;5058954;28;20033;-50
2022/02/12 08:19:38;;;;;;;13.85;3.97;;;;;;;;;;5071486;28;20461;-49
2022/02/12 08:22:05;;;;;;;9.45;3.92;;;;;;;;;;5062693;28;20020;-50
2022/02/12 08:24:31;;;;;;;9.63;3.38;;;;;;;;;;5070030;28;20029;-51
2022/02/12 08:26:57;;;;;;;15.00;4.18;;;;;;;;;;5066228;28;20028;-52
2022/02/12 08:29:26;;;;;;;11.45;4.22;;;;;;;;;;5073839;28;20045;-51
2022/02/12 08:31:52;;;;;;;13.20;3.72;;;;;;;;;;5070411;28;20503;-50
2022/02/12 08:34:18;;;;;;;14.10;4.10;;;;;;;;;;5067171;28;20037;-53
2022/02/12 08:36:44;;;;;;;12.32;3.72;;;;;;;;;;5069348;28;20115;-49
2022/02/12 08:39:10;;;;;;;12.23;4.28;;;;;;;;;;5069646;28;20029;-51
2022/02/12 08:41:36;;;;;;;17.13;4.15;;;;;;;;;;5067098;28;20094;-50
2022/02/12 08:44:02;;;;;;;11.75;3.97;;;;;;;;;;5070852;28;20099;-53
2022/02/12 08:46:28;;;;;;;13.80;4.20;;;;;;;;;;5070469;28;20459;-49
2022/02/12 08:48:54;;;;;;;12.13;4.32;;;;;;;;;;5072524;28;20044;-50
2022/02/12 08:51:20;;;;;;;11.55;3.90;;;;;;;;;;5071562;28;20530;-49
2022/02/12 08:53:46;;;;;;;11.80;4.43;;;;;;;;;;5064277;28;20037;-49
2022/02/12 08:56:12;;;;;;;13.60;4.13;;;;;;;;;;5067104;28;20051;-51
2022/02/12 08:58:39;;;;;;;10.95;4.13;;;;;;;;;;5070147;28;20032;-49
2022/02/12 09:01:05;;;;;;;8.40;3.25;;;;;;;;;;5076559;28;20074;-49
2022/02/12 09:03:31;;;;;;;13.00;4.38;;;;;;;;;;5073187;28;20021;-50
2022/02/12 09:05:58;;;;;;;9.13;3.28;;;;;;;;;;5072957;28;20106;-49
2022/02/12 09:08:24;;;;;;;14.15;3.85;;;;;;;;;;5068919;28;20025;-49
2022/02/12 09:10:50;;;;;;;10.25;3.72;;;;;;;;;;5068306;28;20035;-49
2022/02/12 09:13:16;;;;;;;9.13;3.20;;;;;;;;;;5061595;28;20058;-49
2022/02/12 09:15:42;;;;;;;11.73;2.83;;;;;;;;;;5075706;28;20107;-52
2022/02/12 09:18:08;;;;;;;10.10;2.78;;;;;;;;;;5073102;28;20159;-55
2022/02/12 09:20:34;;;;;;;11.57;2.42;;;;;;;;;;5071476;28;20106;-50
2022/02/12 09:23:00;;;;;;;9.77;2.03;;;;;;;;;;5064157;28;20021;-53
2022/02/12 09:25:26;;;;;;;10.88;2.90;;;;;;;;;;5059898;28;20147;-49
2022/02/12 09:27:53;;;;;;;5.72;2.83;;;;;;;;;;5070145;28;20020;-53
2022/02/12 09:30:19;;;;;;;7.35;2.97;;;;;;;;;;5072526;28;20043;-50
2022/02/12 09:32:45;;;;;;;9.75;3.28;;;;;;;;;;5070992;28;20024;-52
2022/02/12 09:35:12;;;;;;;5.05;2.60;;;;;;;;;;5064449;28;20036;-49
2022/02/12 09:37:38;;;;;;;8.18;2.28;;;;;;;;;;5069673;28;20040;-50
2022/02/12 09:40:05;;;;;;;4.63;1.92;;;;;;;;;;5057120;28;20066;-52
2022/02/12 09:42:31;;;;;;;6.38;2.50;;;;;;;;;;5070894;28;20103;-49
2022/02/12 09:44:58;;;;;;;9.52;1.50;;;;;;;;;;5070603;28;20028;-49
2022/02/12 09:47:42;;;;;;;6.53;1.73;;;;;;;;;;5068471;28;20082;-52
2022/02/12 09:50:10;;;;;;;6.40;2.88;;;;;;;;;;5064390;28;20028;-51
2022/02/12 09:52:36;;;;;;;4.40;1.63;;;;;;;;;;5065658;28;20086;-49
2022/02/12 09:55:03;;;;;;;9.38;2.67;;;;;;;;;;5071897;28;20040;-52
2022/02/12 09:57:29;;;;;;;8.88;2.40;;;;;;;;;;5068687;28;20792;-49
2022/02/12 09:59:59;;;;;;;9.35;1.50;;;;;;;;;;5070537;28;20059;-49
2022/02/12 10:02:25;;;;;;;5.53;1.70;;;;;;;;;;5067108;28;20028;-49
2022/02/12 10:05:10;;;;;;;4.43;1.60;;;;;;;;;;5060661;28;20021;-51
2022/02/12 10:07:37;;;;;;;4.28;1.52;;;;;;;;;;5071402;28;20459;-49
2022/02/12 10:10:12;;;;;;;4.50;1.33;;;;;;;;;;5072094;28;20034;-50
2022/02/12 10:12:38;;;;;;;3.33;1.42;;;;;;;;;;5071382;28;20034;-49
2022/02/12 10:15:04;;;;;;;6.45;2.05;;;;;;;;;;5072082;28;20384;-49
2022/02/12 10:17:30;;;;;;;4.45;2.22;;;;;;;;;;5074607;28;20032;-51
2022/02/12 10:19:56;;;;;;;5.97;1.40;;;;;;;;;;5072134;28;20036;-49
2022/02/12 10:22:23;;;;;;;8.23;2.38;;;;;;;;;;5071527;28;20032;-49
2022/02/12 10:25:03;;;;;;;6.80;1.17;;;;;;;;;;5071605;28;20388;-50
2022/02/12 10:27:29;;;;;;;9.13;3.25;;;;;;;;;;5072233;28;20024;-49
2022/02/12 10:29:58;;;;;;;8.07;1.40;;;;;;;;;;5068940;28;20025;-49
2022/02/12 10:32:25;;;;;;;2.85;0.90;;;;;;;;;;5065327;28;20153;-49
2022/02/12 10:34:52;;;;;;;10.55;1.95;;;;;;;;;;5070183;28;20028;-50
2022/02/12 10:37:19;;;;;;;5.95;1.48;;;;;;;;;;5071387;28;20035;-49
2022/02/12 10:39:48;;;;;;;6.63;1.75;;;;;;;;;;5071527;28;20028;-49
2022/02/12 10:42:17;;;;;;;5.63;1.50;;;;;;;;;;5071260;28;20020;-50
2022/02/12 10:44:43;;;;;;;8.93;1.67;;;;;;;;;;5067860;28;20059;-50
2022/02/12 10:47:11;;;;;;;6.93;2.05;;;;;;;;;;5071752;28;20025;-49
2022/02/12 10:49:37;;;;;;;7.95;1.83;;;;;;;;;;5065988;28;20025;-49
2022/02/12 10:52:03;;;;;;;5.20;1.77;;;;;;;;;;5063785;28;20047;-52
2022/02/12 10:54:38;;;;;;;3.50;1.60;;;;;;;;;;5073104;28;20123;-49
2022/02/12 10:57:05;;;;;;;10.85;1.85;;;;;;;;;;5078660;28;20077;-49
2022/02/12 10:59:32;;;;;;;4.45;1.40;;;;;;;;;;5075077;28;20468;-49
2022/02/12 11:01:59;;;;;;;3.67;1.30;;;;;;;;;;5073035;28;20024;-53
2022/02/12 11:04:26;;;;;;;6.20;1.70;;;;;;;;;;5069305;28;20033;-50
2022/02/12 11:06:52;;;;;;;3.08;1.17;;;;;;;;;;5064960;28;20031;-51
2022/02/12 11:09:18;;;;;;;4.78;1.48;;;;;;;;;;5066838;28;20111;-50
2022/02/12 11:11:44;;;;;;;4.53;1.20;;;;;;;;;;5071807;28;20051;-49
2022/02/12 11:14:10;;;;;;;4.85;1.10;;;;;;;;;;5071401;28;20025;-50
2022/02/12 11:16:36;;;;;;;3.00;1.08;;;;;;;;;;5069078;28;20350;-50
2022/02/12 11:19:04;;;;;;;4.25;1.02;;;;;;;;;;5068697;28;20029;-50
2022/02/12 11:21:30;;;;;;;3.30;0.82;;;;;;;;;;5070305;28;20027;-50
2022/02/12 11:24:00;;;;;;;7.25;1.58;;;;;;;;;;5066347;28;20047;-51
2022/02/12 11:26:26;;;;;;;4.35;1.15;;;;;;;;;;5070191;28;20052;-49
2022/02/12 11:28:53;;;;;;;3.13;0.88;;;;;;;;;;5074138;28;20111;-49
2022/02/12 11:31:27;;;;;;;1.17;0.77;;;;;;;;;;5064661;28;20017;-49
2022/02/12 11:34:02;;;;;;;3.42;0.70;;;;;;;;;;5073978;28;20060;-49
2022/02/12 11:36:28;;;;;;;4.30;0.68;;;;;;;;;;5063138;28;20035;-50
2022/02/12 11:39:07;;;;;;;5.43;1.40;;;;;;;;;;5070383;28;20032;-49
2022/02/12 11:41:34;;;;;;;2.45;0.50;;;;;;;;;;5069620;28;20024;-50
2022/02/12 11:44:00;;;;;;;5.50;0.60;;;;;;;;;;5063858;28;20383;-49
2022/02/12 11:46:42;;;;;;;4.15;0.70;;;;;;;;;;5074705;28;20028;-49
2022/02/12 11:49:24;;;;;;;6.10;1.25;;;;;;;;;;5073120;28;20025;-50
2022/02/12 11:51:50;;;;;;;7.25;1.08;;;;;;;;;;5073037;28;20044;-49
2022/02/12 11:54:35;;;;;;;3.90;0.80;;;;;;;;;;5073407;28;20110;-50
2022/02/12 11:57:01;;;;;;;3.67;0.70;;;;;;;;;;5069140;28;20115;-49
2022/02/12 11:59:27;;;;;;;6.22;0.95;;;;;;;;;;5073821;28;20491;-50
2022/02/12 12:01:53;;;;;;;3.13;0.70;;;;;;;;;;5067440;28;20051;-49
2022/02/12 12:04:22;;;;;;;4.38;0.70;;;;;;;;;;5069787;28;20056;-51
2022/02/12 12:07:05;;;;;;;2.47;0.80;;;;;;;;;;5066046;28;20032;-49
2022/02/12 12:09:33;;;;;;;2.35;0.75;;;;;;;;;;5076226;28;20357;-50
2022/02/12 12:12:11;;;;;;;2.75;0.63;;;;;;;;;;5076066;28;20032;-52
2022/02/12 12:14:37;;;;;;;5.45;1.08;;;;;;;;;;5076666;28;20391;-51
2022/02/12 12:17:04;;;;;;;3.17;1.42;;;;;;;;;;5082366;28;20381;-51
2022/02/12 12:19:31;;;;;;;4.13;1.48;;;;;;;;;;5077132;28;20100;-49
2022/02/12 12:22:10;;;;;;;4.40;0.90;;;;;;;;;;5072201;28;20024;-55
2022/02/12 12:24:37;;;;;;;3.47;0.90;;;;;;;;;;5071525;28;20056;-50
2022/02/12 12:27:03;;;;;;;5.30;1.10;;;;;;;;;;5075470;28;20074;-55
2022/02/12 12:32:18;;;;;;;2.83;0.95;;;;;;;;;;5080303;28;20043;-54
2022/02/12 12:35:06;;;;;;;1.58;0.73;;;;;;;;;;5073569;28;20036;-54
2022/02/12 12:37:33;;;;;;;4.50;0.73;;;;;;;;;;5062319;28;20358;-52
2022/02/12 12:40:00;;;;;;;2.60;0.63;;;;;;;;;;5074758;28;20017;-54
2022/02/12 12:42:27;;;;;;;3.05;0.75;;;;;;;;;;5078889;28;20671;-51
2022/02/12 12:45:12;;;;;;;2.65;1.05;;;;;;;;;;5074199;28;20028;-51
2022/02/12 12:47:48;;;;;;;1.83;0.60;;;;;;;;;;5064291;28;20033;-53
2022/02/12 12:50:14;;;;;;;5.50;0.82;;;;;;;;;;5068080;28;20042;-50
2022/02/12 12:52:40;;;;;;;2.72;0.80;;;;;;;;;;5074359;28;20760;-50
2022/02/12 12:55:16;;;;;;;0.98;0.43;;;;;;;;;;5066507;28;20039;-50
2022/02/12 12:57:43;;;;;;;3.13;0.73;;;;;;;;;;5059051;28;20028;-51
2022/02/12 13:00:16;;;;;;;2.45;0.73;;;;;;;;;;5068265;28;20086;-56
2022/02/12 13:02:42;;;;;;;;;;;;;;;;;;5071500;28;20439;-51
2022/02/12 13:05:08;;;;;;;6.38;1.20;;;;;;;;;;5073094;28;19922;-52
2022/02/12 13:07:36;;;;;;;4.50;1.83;;;;;;;;;;5067622;28;20054;-55
2022/02/12 13:10:02;;;;;;;5.35;0.93;;;;;;;;;;5077871;28;20032;-50
2022/02/12 13:12:32;;;;;;;3.53;0.85;;;;;;;;;;5063466;28;20048;-51
2022/02/12 13:14:59;;;;;;;2.67;0.82;;;;;;;;;;5065405;28;20118;-53
2022/02/12 13:17:25;;;;;;;4.30;1.00;;;;;;;;;;5061599;28;20028;-52
2022/02/12 13:19:51;;;;;;;6.93;1.52;;;;;;;;;;5070603;28;20031;-53
2022/02/12 13:22:19;;;;;;;2.70;0.95;;;;;;;;;;5072890;28;20021;-49
2022/02/12 13:24:52;;;;;;;3.83;1.25;;;;;;;;;;5079376;28;20428;-52
2022/02/12 13:27:18;;;;;;;;;;;;;;;;;;5078428;28;20037;-54
2022/02/12 13:29:44;;;;;;;4.97;1.25;;;;;;;;;;5057789;28;19951;-52
2022/02/12 13:32:10;;;;;;;2.05;0.80;;;;;;;;;;5070438;28;20028;-51
2022/02/12 13:34:41;;;;;;;4.15;1.10;;;;;;;;;;5060487;28;20033;-53
2022/02/12 13:37:07;;;;;;;4.18;0.90;;;;;;;;;;5070608;28;20024;-50
2022/02/12 13:39:35;;;;;;;3.95;1.10;;;;;;;;;;5074304;28;20077;-53
2022/02/12 13:42:01;;;;;;;3.90;0.73;;;;;;;;;;5071936;28;20033;-53
2022/02/12 13:44:29;;;;;;;2.45;0.93;;;;;;;;;;5080613;28;20020;-51
2022/02/12 13:46:56;;;;;;;6.90;1.40;;;;;;;;;;5070992;28;20461;-51
2022/02/12 13:49:25;;;;;;;2.60;0.90;;;;;;;;;;5056721;28;20030;-52
2022/02/12 13:51:55;;;;;;;2.22;0.70;;;;;;;;;;5075546;28;20639;-53
2022/02/12 13:54:22;;;;;;;3.78;0.93;;;;;;;;;;5069019;28;20090;-53
2022/02/12 13:56:51;;;;;;;4.47;1.30;;;;;;;;;;5071651;28;20036;-53
2022/02/12 13:59:17;;;;;;;7.60;1.10;;;;;;;;;;5070056;28;20049;-52
2022/02/12 14:01:43;;;;;;;5.18;0.93;;;;;;;;;;5064038;28;20035;-53
2022/02/12 14:04:10;;;;;;;1.73;0.85;;;;;;;;;;5074076;28;20028;-53
2022/02/12 14:06:36;;;;;;;5.63;1.27;;;;;;;;;;5061991;28;20021;-47
2022/02/12 14:09:02;;;;;;;4.78;1.00;;;;;;;;;;5071763;28;20046;-49
2022/02/12 14:11:29;;;;;;;7.70;1.10;;;;;;;;;;5065350;28;20137;-52
2022/02/12 14:13:55;;;;;;;6.07;1.40;;;;;;;;;;5070119;28;20392;-54
2022/02/12 14:16:21;;;;;;;2.40;1.17;;;;;;;;;;5065459;28;20036;-49
2022/02/12 14:18:47;;;;;;;2.53;0.70;;;;;;;;;;5059570;28;20033;-50
2022/02/12 14:21:13;;;;;;;9.38;2.13;;;;;;;;;;5061464;28;20085;-47
2022/02/12 14:23:39;;;;;;;5.72;0.80;;;;;;;;;;5067916;28;20032;-47
2022/02/12 14:26:06;;;;;;;1.05;0.60;;;;;;;;;;5071334;28;20024;-52
2022/02/12 14:28:32;;;;;;;5.82;0.80;;;;;;;;;;5061554;28;20040;-48
2022/02/12 14:30:58;;;;;;;2.55;0.90;;;;;;;;;;5065004;28;20031;-52
2022/02/12 14:33:24;;;;;;;3.83;1.15;;;;;;;;;;5069810;28;20388;-51
2022/02/12 14:35:53;;;;;;;2.38;0.90;;;;;;;;;;5073686;28;20036;-48
2022/02/12 14:38:19;;;;;;;4.13;0.65;;;;;;;;;;5055906;28;20033;-51
2022/02/12 14:40:46;;;;;;;5.85;0.95;;;;;;;;;;5063957;28;20528;-52
2022/02/12 14:43:12;;;;;;;2.45;1.02;;;;;;;;;;5073803;28;20383;-53
2022/02/12 14:45:38;;;;;;;2.35;0.90;;;;;;;;;;5056181;28;20040;-49
2022/02/12 14:48:04;;;;;;;5.15;0.98;;;;;;;;;;5066445;28;20106;-49
2022/02/12 14:50:31;;;;;;;9.05;1.58;;;;;;;;;;5067310;28;20028;-50